sensor_id;sensor_type;location;lat;lon;timestamp;temperature;humidity
28863;DHT22;15994;51.796;13.006;2022-09-21T00:00:38;8.80;99.90
28863;DHT22;15994;51.796;13.006;2022-09-21T00:03:05;8.80;99.90
28863;DHT22;15994;51.796;13.006;2022-09-21T00:05:33;8.80;99.90
28863;DHT22;15994;51.796;13.006;2022-09-21T00:08:01;8.80;99.90
28863;DHT22;15994;51.796;13.006;2022-09-21T00:10:28;8.80;99.90
28863;DHT22;15994;51.796;13.006;2022-09-21T00:12:56;8.80;99.90
28863;DHT22;15994;51.796;13.006;2022-09-21T00:15:24;8.70;99.90
28863;DHT22;15994;51.796;13.006;2022-09-21T00:17:54;8.60;99.90
28863;DHT22;15994;51.796;13.006;2022-09-21T00:20:21;8.60;99.90
28863;DHT22;15994;51.796;13.006;2022-09-21T00:22:48;8.60;99.90
28863;DHT22;15994;51.796;13.006;2022-09-21T00:25:16;8.60;99.90
28863;DHT22;15994;51.796;13.006;2022-09-21T00:27:42;8.50;99.90
28863;DHT22;15994;51.796;13.006;2022-09-21T00:30:10;8.50;99.90
28863;DHT22;15994;51.796;13.006;2022-09-21T00:32:37;8.50;99.90
28863;DHT22;15994;51.796;13.006;2022-09-21T00:35:05;8.50;99.90
28863;DHT22;15994;51.796;13.006;2022-09-21T00:37:33;8.40;99.90
28863;DHT22;15994;51.796;13.006;2022-09-21T00:39:59;8.40;99.90
28863;DHT22;15994;51.796;13.006;2022-09-21T00:42:29;8.30;99.90
28863;DHT22;15994;51.796;13.006;2022-09-21T00:44:56;8.30;99.90
28863;DHT22;15994;51.796;13.006;2022-09-21T00:47:30;8.20;99.90
28863;DHT22;15994;51.796;13.006;2022-09-21T00:50:00;8.30;99.90
28863;DHT22;15994;51.796;13.006;2022-09-21T00:52:29;8.30;99.90
28863;DHT22;15994;51.796;13.006;2022-09-21T00:54:59;8.30;99.90
28863;DHT22;15994;51.796;13.006;2022-09-21T00:57:29;8.20;99.90
28863;DHT22;15994;51.796;13.006;2022-09-21T00:59:59;8.20;99.90
28863;DHT22;15994;51.796;13.006;2022-09-21T01:02:27;8.10;99.90
28863;DHT22;15994;51.796;13.006;2022-09-21T01:04:54;8.10;99.90
28863;DHT22;15994;51.796;13.006;2022-09-21T01:07:27;8.10;99.90
28863;DHT22;15994;51.796;13.006;2022-09-21T01:09:57;8.00;99.90
28863;DHT22;15994;51.796;13.006;2022-09-21T01:15:54;8.00;99.90
28863;DHT22;15994;51.796;13.006;2022-09-21T01:21:24;7.90;99.90
28863;DHT22;15994;51.796;13.006;2022-09-21T01:29:54;7.90;99.90
28863;DHT22;15994;51.796;13.006;2022-09-21T01:32:36;7.90;99.90
28863;DHT22;15994;51.796;13.006;2022-09-21T01:35:12;7.90;99.90
28863;DHT22;15994;51.796;13.006;2022-09-21T01:37:51;7.90;99.90
28863;DHT22;15994;51.796;13.006;2022-09-21T01:40:28;8.00;99.90
28863;DHT22;15994;51.796;13.006;2022-09-21T01:42:56;8.00;99.90
28863;DHT22;15994;51.796;13.006;2022-09-21T01:45:34;8.00;99.90
28863;DHT22;15994;51.796;13.006;2022-09-21T01:48:02;8.00;99.90
28863;DHT22;15994;51.796;13.006;2022-09-21T01:50:36;8.00;99.90
28863;DHT22;15994;51.796;13.006;2022-09-21T01:53:10;8.00;99.90
28863;DHT22;15994;51.796;13.006;2022-09-21T01:55:47;7.90;99.90
28863;DHT22;15994;51.796;13.006;2022-09-21T01:58:25;7.90;99.90
28863;DHT22;15994;51.796;13.006;2022-09-21T02:00:54;7.90;99.90
28863;DHT22;15994;51.796;13.006;2022-09-21T02:06:00;7.80;99.90
28863;DHT22;15994;51.796;13.006;2022-09-21T02:08:30;7.70;99.90
28863;DHT22;15994;51.796;13.006;2022-09-21T02:10:59;7.70;99.90
28863;DHT22;15994;51.796;13.006;2022-09-21T02:13:31;7.60;99.90
28863;DHT22;15994;51.796;13.006;2022-09-21T02:19:09;7.60;99.90
28863;DHT22;15994;51.796;13.006;2022-09-21T02:22:04;7.50;99.90
28863;DHT22;15994;51.796;13.006;2022-09-21T02:24:53;7.50;99.90
28863;DHT22;15994;51.796;13.006;2022-09-21T02:27:30;7.40;99.90
28863;DHT22;15994;51.796;13.006;2022-09-21T02:33:12;7.30;99.90
28863;DHT22;15994;51.796;13.006;2022-09-21T02:35:52;7.40;99.90
28863;DHT22;15994;51.796;13.006;2022-09-21T02:38:38;7.30;99.90
28863;DHT22;15994;51.796;13.006;2022-09-21T02:41:14;7.30;99.90
28863;DHT22;15994;51.796;13.006;2022-09-21T02:43:58;7.20;99.90
28863;DHT22;15994;51.796;13.006;2022-09-21T02:46:47;7.20;99.90
28863;DHT22;15994;51.796;13.006;2022-09-21T02:49:20;7.20;99.90
28863;DHT22;15994;51.796;13.006;2022-09-21T02:51:53;7.20;99.90
28863;DHT22;15994;51.796;13.006;2022-09-21T02:54:26;7.20;99.90
28863;DHT22;15994;51.796;13.006;2022-09-21T02:56:55;7.20;99.90
28863;DHT22;15994;51.796;13.006;2022-09-21T02:59:23;7.20;99.90
28863;DHT22;15994;51.796;13.006;2022-09-21T03:01:51;7.10;99.90
28863;DHT22;15994;51.796;13.006;2022-09-21T03:04:17;7.10;99.90
28863;DHT22;15994;51.796;13.006;2022-09-21T03:06:44;7.00;99.90
28863;DHT22;15994;51.796;13.006;2022-09-21T03:09:11;7.00;99.90
28863;DHT22;15994;51.796;13.006;2022-09-21T03:11:38;7.00;99.90
28863;DHT22;15994;51.796;13.006;2022-09-21T03:14:06;7.00;99.90
28863;DHT22;15994;51.796;13.006;2022-09-21T03:16:34;6.90;99.90
28863;DHT22;15994;51.796;13.006;2022-09-21T03:19:01;6.90;99.90
28863;DHT22;15994;51.796;13.006;2022-09-21T03:21:27;6.90;99.90
28863;DHT22;15994;51.796;13.006;2022-09-21T03:23:54;6.80;99.90
28863;DHT22;15994;51.796;13.006;2022-09-21T03:26:21;6.80;99.90
28863;DHT22;15994;51.796;13.006;2022-09-21T03:28:48;6.70;99.90
28863;DHT22;15994;51.796;13.006;2022-09-21T03:31:15;6.70;99.90
28863;DHT22;15994;51.796;13.006;2022-09-21T03:33:41;6.70;99.90
28863;DHT22;15994;51.796;13.006;2022-09-21T03:36:08;6.70;99.90
28863;DHT22;15994;51.796;13.006;2022-09-21T03:38:36;6.60;99.90
28863;DHT22;15994;51.796;13.006;2022-09-21T03:41:03;6.60;99.90
28863;DHT22;15994;51.796;13.006;2022-09-21T03:43:30;6.60;99.90
28863;DHT22;15994;51.796;13.006;2022-09-21T03:45:57;6.60;99.90
28863;DHT22;15994;51.796;13.006;2022-09-21T03:48:23;6.60;99.90
28863;DHT22;15994;51.796;13.006;2022-09-21T03:50:51;6.60;99.90
28863;DHT22;15994;51.796;13.006;2022-09-21T03:53:17;6.60;99.90
28863;DHT22;15994;51.796;13.006;2022-09-21T03:55:44;6.50;99.90
28863;DHT22;15994;51.796;13.006;2022-09-21T03:58:10;6.40;99.90
28863;DHT22;15994;51.796;13.006;2022-09-21T04:00:37;6.40;99.90
28863;DHT22;15994;51.796;13.006;2022-09-21T04:03:04;6.40;99.90
28863;DHT22;15994;51.796;13.006;2022-09-21T04:05:30;6.40;99.90
28863;DHT22;15994;51.796;13.006;2022-09-21T04:07:57;6.40;99.90
28863;DHT22;15994;51.796;13.006;2022-09-21T04:10:26;6.40;99.90
28863;DHT22;15994;51.796;13.006;2022-09-21T04:13:01;6.30;99.90
28863;DHT22;15994;51.796;13.006;2022-09-21T04:15:29;6.30;99.90
28863;DHT22;15994;51.796;13.006;2022-09-21T04:17:56;6.30;99.90
28863;DHT22;15994;51.796;13.006;2022-09-21T04:20:23;6.30;99.90
28863;DHT22;15994;51.796;13.006;2022-09-21T04:22:50;6.30;99.90
28863;DHT22;15994;51.796;13.006;2022-09-21T04:25:17;6.30;99.90
28863;DHT22;15994;51.796;13.006;2022-09-21T04:27:43;6.30;99.90
28863;DHT22;15994;51.796;13.006;2022-09-21T04:30:12;6.30;99.90
28863;DHT22;15994;51.796;13.006;2022-09-21T04:32:39;6.30;99.90
28863;DHT22;15994;51.796;13.006;2022-09-21T04:35:06;6.30;99.90
28863;DHT22;15994;51.796;13.006;2022-09-21T04:37:33;6.30;99.90
28863;DHT22;15994;51.796;13.006;2022-09-21T04:40:00;6.30;99.90
28863;DHT22;15994;51.796;13.006;2022-09-21T04:42:26;6.30;99.90
28863;DHT22;15994;51.796;13.006;2022-09-21T04:44:53;6.30;99.90
28863;DHT22;15994;51.796;13.006;2022-09-21T04:47:19;6.30;99.90
28863;DHT22;15994;51.796;13.006;2022-09-21T04:49:47;6.40;99.90
28863;DHT22;15994;51.796;13.006;2022-09-21T04:52:14;6.30;99.90
28863;DHT22;15994;51.796;13.006;2022-09-21T04:54:40;6.30;99.90
28863;DHT22;15994;51.796;13.006;2022-09-21T04:57:07;6.30;99.90
28863;DHT22;15994;51.796;13.006;2022-09-21T04:59:34;6.40;99.90
28863;DHT22;15994;51.796;13.006;2022-09-21T05:02:00;6.30;99.90
28863;DHT22;15994;51.796;13.006;2022-09-21T05:04:26;6.40;99.90
28863;DHT22;15994;51.796;13.006;2022-09-21T05:06:54;6.30;99.90
28863;DHT22;15994;51.796;13.006;2022-09-21T05:09:22;6.40;99.90
28863;DHT22;15994;51.796;13.006;2022-09-21T05:12:07;6.40;99.90
28863;DHT22;15994;51.796;13.006;2022-09-21T05:14:34;6.40;99.90
28863;DHT22;15994;51.796;13.006;2022-09-21T05:17:01;6.40;99.90
28863;DHT22;15994;51.796;13.006;2022-09-21T05:19:28;6.40;99.90
28863;DHT22;15994;51.796;13.006;2022-09-21T05:21:54;6.40;99.90
28863;DHT22;15994;51.796;13.006;2022-09-21T05:24:21;6.40;99.90
28863;DHT22;15994;51.796;13.006;2022-09-21T05:26:47;6.40;99.90
28863;DHT22;15994;51.796;13.006;2022-09-21T05:29:14;6.50;99.90
28863;DHT22;15994;51.796;13.006;2022-09-21T05:40:05;6.60;99.90
28863;DHT22;15994;51.796;13.006;2022-09-21T05:42:32;6.60;99.90
28863;DHT22;15994;51.796;13.006;2022-09-21T05:44:59;6.70;99.90
28863;DHT22;15994;51.796;13.006;2022-09-21T05:47:39;6.70;99.90
28863;DHT22;15994;51.796;13.006;2022-09-21T05:55:58;6.90;99.90
28863;DHT22;15994;51.796;13.006;2022-09-21T05:58:35;7.00;99.90
28863;DHT22;15994;51.796;13.006;2022-09-21T06:03:58;7.10;99.90
28863;DHT22;15994;51.796;13.006;2022-09-21T06:06:25;7.10;99.90
28863;DHT22;15994;51.796;13.006;2022-09-21T06:08:51;7.10;99.90
28863;DHT22;15994;51.796;13.006;2022-09-21T06:11:18;7.10;99.90
28863;DHT22;15994;51.796;13.006;2022-09-21T06:13:45;7.20;99.90
28863;DHT22;15994;51.796;13.006;2022-09-21T06:16:11;7.20;99.90
28863;DHT22;15994;51.796;13.006;2022-09-21T06:18:39;7.20;99.90
28863;DHT22;15994;51.796;13.006;2022-09-21T06:21:07;7.30;99.90
28863;DHT22;15994;51.796;13.006;2022-09-21T06:23:33;7.30;99.90
28863;DHT22;15994;51.796;13.006;2022-09-21T06:26:00;7.40;99.90
28863;DHT22;15994;51.796;13.006;2022-09-21T06:28:27;7.40;99.90
28863;DHT22;15994;51.796;13.006;2022-09-21T06:30:55;7.50;99.90
28863;DHT22;15994;51.796;13.006;2022-09-21T06:33:22;7.60;99.90
28863;DHT22;15994;51.796;13.006;2022-09-21T06:35:56;7.70;99.90
28863;DHT22;15994;51.796;13.006;2022-09-21T06:38:24;7.70;99.90
28863;DHT22;15994;51.796;13.006;2022-09-21T06:40:51;7.80;99.90
28863;DHT22;15994;51.796;13.006;2022-09-21T06:43:18;7.80;99.90
28863;DHT22;15994;51.796;13.006;2022-09-21T06:45:52;7.90;99.90
28863;DHT22;15994;51.796;13.006;2022-09-21T06:48:19;8.00;99.90
28863;DHT22;15994;51.796;13.006;2022-09-21T06:50:46;8.10;99.90
28863;DHT22;15994;51.796;13.006;2022-09-21T06:53:13;8.20;99.90
28863;DHT22;15994;51.796;13.006;2022-09-21T06:55:40;8.30;99.90
28863;DHT22;15994;51.796;13.006;2022-09-21T06:58:07;8.40;99.90
28863;DHT22;15994;51.796;13.006;2022-09-21T07:00:33;8.40;99.90
28863;DHT22;15994;51.796;13.006;2022-09-21T07:03:00;8.50;99.90
28863;DHT22;15994;51.796;13.006;2022-09-21T07:05:27;8.60;99.90
28863;DHT22;15994;51.796;13.006;2022-09-21T07:07:57;8.60;99.90
28863;DHT22;15994;51.796;13.006;2022-09-21T07:10:24;8.70;99.90
28863;DHT22;15994;51.796;13.006;2022-09-21T07:12:50;8.80;99.90
28863;DHT22;15994;51.796;13.006;2022-09-21T07:15:18;8.90;99.90
28863;DHT22;15994;51.796;13.006;2022-09-21T07:17:45;9.00;99.90
28863;DHT22;15994;51.796;13.006;2022-09-21T07:20:12;9.10;99.90
28863;DHT22;15994;51.796;13.006;2022-09-21T07:22:39;9.20;99.90
28863;DHT22;15994;51.796;13.006;2022-09-21T07:25:05;9.30;99.90
28863;DHT22;15994;51.796;13.006;2022-09-21T07:27:32;9.30;99.90
28863;DHT22;15994;51.796;13.006;2022-09-21T07:29:59;9.40;99.90
28863;DHT22;15994;51.796;13.006;2022-09-21T07:32:26;9.40;99.90
28863;DHT22;15994;51.796;13.006;2022-09-21T07:34:52;9.50;99.90
28863;DHT22;15994;51.796;13.006;2022-09-21T07:37:21;9.60;99.90
28863;DHT22;15994;51.796;13.006;2022-09-21T07:39:49;9.70;99.90
28863;DHT22;15994;51.796;13.006;2022-09-21T07:42:16;9.80;99.90
28863;DHT22;15994;51.796;13.006;2022-09-21T07:44:45;9.80;99.90
28863;DHT22;15994;51.796;13.006;2022-09-21T07:47:12;9.90;99.90
28863;DHT22;15994;51.796;13.006;2022-09-21T07:49:39;10.00;99.90
28863;DHT22;15994;51.796;13.006;2022-09-21T07:52:06;10.10;99.90
28863;DHT22;15994;51.796;13.006;2022-09-21T07:54:34;10.20;99.90
28863;DHT22;15994;51.796;13.006;2022-09-21T07:57:01;10.30;99.90
28863;DHT22;15994;51.796;13.006;2022-09-21T07:59:45;10.40;99.90
28863;DHT22;15994;51.796;13.006;2022-09-21T08:02:12;10.40;99.90
28863;DHT22;15994;51.796;13.006;2022-09-21T08:04:38;10.60;99.90
28863;DHT22;15994;51.796;13.006;2022-09-21T08:07:05;10.70;99.90
28863;DHT22;15994;51.796;13.006;2022-09-21T08:09:31;10.80;99.90
28863;DHT22;15994;51.796;13.006;2022-09-21T08:11:59;10.90;99.90
28863;DHT22;15994;51.796;13.006;2022-09-21T08:14:25;11.00;99.90
28863;DHT22;15994;51.796;13.006;2022-09-21T08:16:53;11.10;99.90
28863;DHT22;15994;51.796;13.006;2022-09-21T08:19:19;11.20;99.90
28863;DHT22;15994;51.796;13.006;2022-09-21T08:21:49;11.30;99.90
28863;DHT22;15994;51.796;13.006;2022-09-21T08:24:16;11.30;99.90
28863;DHT22;15994;51.796;13.006;2022-09-21T08:26:43;11.40;99.90
28863;DHT22;15994;51.796;13.006;2022-09-21T08:29:09;11.30;99.90
28863;DHT22;15994;51.796;13.006;2022-09-21T08:31:38;11.40;99.90
28863;DHT22;15994;51.796;13.006;2022-09-21T08:34:05;11.60;99.90
28863;DHT22;15994;51.796;13.006;2022-09-21T08:36:31;11.70;99.90
28863;DHT22;15994;51.796;13.006;2022-09-21T08:38:58;11.90;99.90
28863;DHT22;15994;51.796;13.006;2022-09-21T08:44:23;12.50;99.90
28863;DHT22;15994;51.796;13.006;2022-09-21T08:47:02;12.70;99.90
28863;DHT22;15994;51.796;13.006;2022-09-21T08:49:30;13.00;99.90
28863;DHT22;15994;51.796;13.006;2022-09-21T08:52:03;13.10;99.90
28863;DHT22;15994;51.796;13.006;2022-09-21T08:54:45;13.20;99.90
28863;DHT22;15994;51.796;13.006;2022-09-21T08:57:13;13.20;99.90
28863;DHT22;15994;51.796;13.006;2022-09-21T08:59:45;13.00;99.90
28863;DHT22;15994;51.796;13.006;2022-09-21T09:02:37;12.90;99.90
28863;DHT22;15994;51.796;13.006;2022-09-21T09:20:02;12.80;99.90
28863;DHT22;15994;51.796;13.006;2022-09-21T09:22:38;12.90;99.90
28863;DHT22;15994;51.796;13.006;2022-09-21T09:25:15;13.20;99.90
28863;DHT22;15994;51.796;13.006;2022-09-21T09:27:43;13.40;99.90
28863;DHT22;15994;51.796;13.006;2022-09-21T09:30:26;13.70;99.90
28863;DHT22;15994;51.796;13.006;2022-09-21T09:33:15;14.00;99.90
28863;DHT22;15994;51.796;13.006;2022-09-21T09:36:01;14.10;99.90
28863;DHT22;15994;51.796;13.006;2022-09-21T09:38:44;14.30;99.90
28863;DHT22;15994;51.796;13.006;2022-09-21T09:41:39;14.50;99.90
28863;DHT22;15994;51.796;13.006;2022-09-21T09:44:29;14.60;99.90
28863;DHT22;15994;51.796;13.006;2022-09-21T09:52:25;14.60;99.90
28863;DHT22;15994;51.796;13.006;2022-09-21T09:54:52;14.60;99.90
28863;DHT22;15994;51.796;13.006;2022-09-21T09:57:28;14.80;99.90
28863;DHT22;15994;51.796;13.006;2022-09-21T10:00:04;14.80;99.90
28863;DHT22;15994;51.796;13.006;2022-09-21T10:02:48;14.80;99.90
28863;DHT22;15994;51.796;13.006;2022-09-21T10:07:56;15.00;99.90
28863;DHT22;15994;51.796;13.006;2022-09-21T10:13:09;14.90;99.90
28863;DHT22;15994;51.796;13.006;2022-09-21T10:15:47;14.80;99.90
28863;DHT22;15994;51.796;13.006;2022-09-21T10:18:20;14.80;99.90
28863;DHT22;15994;51.796;13.006;2022-09-21T10:23:34;14.70;99.90
28863;DHT22;15994;51.796;13.006;2022-09-21T10:26:06;14.70;99.90
28863;DHT22;15994;51.796;13.006;2022-09-21T10:28:33;14.70;99.90
28863;DHT22;15994;51.796;13.006;2022-09-21T10:31:21;14.60;99.90
28863;DHT22;15994;51.796;13.006;2022-09-21T10:34:11;14.70;99.90
28863;DHT22;15994;51.796;13.006;2022-09-21T10:36:39;14.70;99.90
28863;DHT22;15994;51.796;13.006;2022-09-21T10:39:19;14.70;99.90
28863;DHT22;15994;51.796;13.006;2022-09-21T10:44:45;14.80;99.90
28863;DHT22;15994;51.796;13.006;2022-09-21T10:47:42;15.00;99.90
28863;DHT22;15994;51.796;13.006;2022-09-21T10:53:01;15.10;99.90
28863;DHT22;15994;51.796;13.006;2022-09-21T10:55:29;15.10;99.90
28863;DHT22;15994;51.796;13.006;2022-09-21T10:57:56;15.10;99.90
28863;DHT22;15994;51.796;13.006;2022-09-21T11:02:50;15.10;99.90
28863;DHT22;15994;51.796;13.006;2022-09-21T11:05:21;15.00;99.90
28863;DHT22;15994;51.796;13.006;2022-09-21T11:07:53;15.10;99.90
28863;DHT22;15994;51.796;13.006;2022-09-21T11:10:37;15.10;99.90
28863;DHT22;15994;51.796;13.006;2022-09-21T11:13:32;15.20;99.90
28863;DHT22;15994;51.796;13.006;2022-09-21T11:18:52;15.20;99.90
28863;DHT22;15994;51.796;13.006;2022-09-21T11:21:32;15.40;99.90
28863;DHT22;15994;51.796;13.006;2022-09-21T11:24:25;15.50;99.90
28863;DHT22;15994;51.796;13.006;2022-09-21T11:33:23;16.20;99.90
28863;DHT22;15994;51.796;13.006;2022-09-21T11:35:53;16.20;99.90
28863;DHT22;15994;51.796;13.006;2022-09-21T11:38:30;16.40;99.90
28863;DHT22;15994;51.796;13.006;2022-09-21T11:49:12;15.90;99.90
28863;DHT22;15994;51.796;13.006;2022-09-21T11:51:54;15.70;99.90
28863;DHT22;15994;51.796;13.006;2022-09-21T11:55:02;15.60;99.90
28863;DHT22;15994;51.796;13.006;2022-09-21T12:00:30;15.50;99.90
28863;DHT22;15994;51.796;13.006;2022-09-21T12:03:31;15.70;99.90
28863;DHT22;15994;51.796;13.006;2022-09-21T12:06:37;15.90;99.90
28863;DHT22;15994;51.796;13.006;2022-09-21T12:12:27;16.30;99.90
28863;DHT22;15994;51.796;13.006;2022-09-21T12:18:21;17.00;99.90
28863;DHT22;15994;51.796;13.006;2022-09-21T12:21:02;17.10;99.90
28863;DHT22;15994;51.796;13.006;2022-09-21T12:23:56;16.90;99.90
28863;DHT22;15994;51.796;13.006;2022-09-21T12:26:26;16.80;99.90
28863;DHT22;15994;51.796;13.006;2022-09-21T12:29:02;16.80;99.90
28863;DHT22;15994;51.796;13.006;2022-09-21T12:32:36;17.00;99.90
28863;DHT22;15994;51.796;13.006;2022-09-21T12:34:41;17.00;99.90
28863;DHT22;15994;51.796;13.006;2022-09-21T12:37:24;17.30;99.90
28863;DHT22;15994;51.796;13.006;2022-09-21T12:40:06;17.50;99.90
28863;DHT22;15994;51.796;13.006;2022-09-21T12:48:03;17.40;99.90
28863;DHT22;15994;51.796;13.006;2022-09-21T12:53:56;17.30;99.90
28863;DHT22;15994;51.796;13.006;2022-09-21T12:57:15;17.10;99.90
28863;DHT22;15994;51.796;13.006;2022-09-21T13:00:01;16.90;99.90
28863;DHT22;15994;51.796;13.006;2022-09-21T13:02:41;16.80;99.90
28863;DHT22;15994;51.796;13.006;2022-09-21T13:08:01;17.00;99.90
28863;DHT22;15994;51.796;13.006;2022-09-21T13:10:40;17.20;99.90
28863;DHT22;15994;51.796;13.006;2022-09-21T13:15:52;17.50;99.90
28863;DHT22;15994;51.796;13.006;2022-09-21T13:18:28;17.60;99.90
28863;DHT22;15994;51.796;13.006;2022-09-21T13:20:57;17.70;99.90
28863;DHT22;15994;51.796;13.006;2022-09-21T13:23:37;17.50;99.90
28863;DHT22;15994;51.796;13.006;2022-09-21T13:26:08;17.50;99.90
28863;DHT22;15994;51.796;13.006;2022-09-21T13:29:29;17.50;99.90
28863;DHT22;15994;51.796;13.006;2022-09-21T13:32:02;17.70;99.90
28863;DHT22;15994;51.796;13.006;2022-09-21T13:34:48;17.60;99.90
28863;DHT22;15994;51.796;13.006;2022-09-21T13:47:40;17.40;99.90
28863;DHT22;15994;51.796;13.006;2022-09-21T13:50:23;17.30;99.90
28863;DHT22;15994;51.796;13.006;2022-09-21T13:53:05;17.20;99.90
28863;DHT22;15994;51.796;13.006;2022-09-21T13:55:36;17.00;99.90
28863;DHT22;15994;51.796;13.006;2022-09-21T13:58:27;16.80;99.90
28863;DHT22;15994;51.796;13.006;2022-09-21T14:01:11;16.70;99.90
28863;DHT22;15994;51.796;13.006;2022-09-21T14:03:45;16.60;99.90
28863;DHT22;15994;51.796;13.006;2022-09-21T14:06:20;16.50;99.90
28863;DHT22;15994;51.796;13.006;2022-09-21T14:09:04;16.40;99.90
28863;DHT22;15994;51.796;13.006;2022-09-21T14:14:32;16.40;99.90
28863;DHT22;15994;51.796;13.006;2022-09-21T14:17:03;16.40;99.90
28863;DHT22;15994;51.796;13.006;2022-09-21T14:24:37;16.50;99.90
28863;DHT22;15994;51.796;13.006;2022-09-21T14:27:25;16.50;99.90
28863;DHT22;15994;51.796;13.006;2022-09-21T14:32:46;16.50;99.90
28863;DHT22;15994;51.796;13.006;2022-09-21T14:35:20;16.50;99.90
28863;DHT22;15994;51.796;13.006;2022-09-21T14:37:51;16.60;99.90
28863;DHT22;15994;51.796;13.006;2022-09-21T14:40:26;16.60;99.90
28863;DHT22;15994;51.796;13.006;2022-09-21T14:42:57;16.60;99.90
28863;DHT22;15994;51.796;13.006;2022-09-21T14:48:10;16.70;99.90
28863;DHT22;15994;51.796;13.006;2022-09-21T14:50:56;16.70;99.90
28863;DHT22;15994;51.796;13.006;2022-09-21T14:53:32;16.60;99.90
28863;DHT22;15994;51.796;13.006;2022-09-21T14:56:29;16.60;99.90
28863;DHT22;15994;51.796;13.006;2022-09-21T14:59:15;16.60;99.90
28863;DHT22;15994;51.796;13.006;2022-09-21T15:02:12;16.50;99.90
28863;DHT22;15994;51.796;13.006;2022-09-21T15:07:45;16.50;99.90
28863;DHT22;15994;51.796;13.006;2022-09-21T15:10:36;16.50;99.90
28863;DHT22;15994;51.796;13.006;2022-09-21T15:13:45;16.50;99.90
28863;DHT22;15994;51.796;13.006;2022-09-21T15:19:15;16.50;99.90
28863;DHT22;15994;51.796;13.006;2022-09-21T15:21:51;16.50;99.90
28863;DHT22;15994;51.796;13.006;2022-09-21T15:24:25;16.30;99.90
28863;DHT22;15994;51.796;13.006;2022-09-21T15:27:05;16.30;99.90
28863;DHT22;15994;51.796;13.006;2022-09-21T15:29:35;16.30;99.90
28863;DHT22;15994;51.796;13.006;2022-09-21T15:32:04;16.40;99.90
28863;DHT22;15994;51.796;13.006;2022-09-21T15:34:30;16.40;99.90
28863;DHT22;15994;51.796;13.006;2022-09-21T15:37:14;16.30;99.90
28863;DHT22;15994;51.796;13.006;2022-09-21T15:39:41;16.10;99.90
28863;DHT22;15994;51.796;13.006;2022-09-21T15:44:36;15.90;99.90
28863;DHT22;15994;51.796;13.006;2022-09-21T15:47:07;15.80;99.90
28863;DHT22;15994;51.796;13.006;2022-09-21T15:49:36;15.80;99.90
28863;DHT22;15994;51.796;13.006;2022-09-21T15:52:07;15.80;99.90
28863;DHT22;15994;51.796;13.006;2022-09-21T15:54:41;15.60;99.90
28863;DHT22;15994;51.796;13.006;2022-09-21T15:57:24;15.50;99.90
28863;DHT22;15994;51.796;13.006;2022-09-21T15:59:53;15.40;99.90
28863;DHT22;15994;51.796;13.006;2022-09-21T16:02:23;15.40;99.90
28863;DHT22;15994;51.796;13.006;2022-09-21T16:04:50;15.30;99.90
28863;DHT22;15994;51.796;13.006;2022-09-21T16:07:33;15.30;99.90
28863;DHT22;15994;51.796;13.006;2022-09-21T16:10:00;15.30;99.90
28863;DHT22;15994;51.796;13.006;2022-09-21T16:12:41;15.30;99.90
28863;DHT22;15994;51.796;13.006;2022-09-21T16:15:18;15.20;99.90
28863;DHT22;15994;51.796;13.006;2022-09-21T16:17:56;15.20;99.90
28863;DHT22;15994;51.796;13.006;2022-09-21T16:20:43;15.20;99.90
28863;DHT22;15994;51.796;13.006;2022-09-21T16:23:15;15.10;99.90
28863;DHT22;15994;51.796;13.006;2022-09-21T16:25:43;15.10;99.90
28863;DHT22;15994;51.796;13.006;2022-09-21T16:30:50;14.90;99.90
28863;DHT22;15994;51.796;13.006;2022-09-21T16:33:38;14.80;99.90
28863;DHT22;15994;51.796;13.006;2022-09-21T16:38:57;14.70;99.90
28863;DHT22;15994;51.796;13.006;2022-09-21T16:41:31;14.70;99.90
28863;DHT22;15994;51.796;13.006;2022-09-21T16:43:59;14.70;99.90
28863;DHT22;15994;51.796;13.006;2022-09-21T16:46:26;14.50;99.90
28863;DHT22;15994;51.796;13.006;2022-09-21T16:48:52;14.50;99.90
28863;DHT22;15994;51.796;13.006;2022-09-21T16:51:20;14.40;99.90
28863;DHT22;15994;51.796;13.006;2022-09-21T16:53:50;14.30;99.90
28863;DHT22;15994;51.796;13.006;2022-09-21T16:56:16;14.30;99.90
28863;DHT22;15994;51.796;13.006;2022-09-21T16:58:43;14.10;99.90
28863;DHT22;15994;51.796;13.006;2022-09-21T17:01:15;14.00;99.90
28863;DHT22;15994;51.796;13.006;2022-09-21T17:03:42;13.90;99.90
28863;DHT22;15994;51.796;13.006;2022-09-21T17:06:17;13.80;99.90
28863;DHT22;15994;51.796;13.006;2022-09-21T17:08:45;13.70;99.90
28863;DHT22;15994;51.796;13.006;2022-09-21T17:11:15;13.60;99.90
28863;DHT22;15994;51.796;13.006;2022-09-21T17:13:47;13.40;99.90
28863;DHT22;15994;51.796;13.006;2022-09-21T17:16:14;13.40;99.90
28863;DHT22;15994;51.796;13.006;2022-09-21T17:18:46;13.30;99.90
28863;DHT22;15994;51.796;13.006;2022-09-21T17:21:14;13.20;99.90
28863;DHT22;15994;51.796;13.006;2022-09-21T17:23:41;13.20;99.90
28863;DHT22;15994;51.796;13.006;2022-09-21T17:26:15;13.00;99.90
28863;DHT22;15994;51.796;13.006;2022-09-21T17:28:44;12.90;99.90
28863;DHT22;15994;51.796;13.006;2022-09-21T17:31:11;12.70;99.90
28863;DHT22;15994;51.796;13.006;2022-09-21T17:33:39;12.60;99.90
28863;DHT22;15994;51.796;13.006;2022-09-21T17:36:08;12.60;99.90
28863;DHT22;15994;51.796;13.006;2022-09-21T17:38:36;12.50;99.90
28863;DHT22;15994;51.796;13.006;2022-09-21T17:41:09;12.40;99.90
28863;DHT22;15994;51.796;13.006;2022-09-21T17:49:02;12.20;99.90
28863;DHT22;15994;51.796;13.006;2022-09-21T17:51:28;12.10;99.90
28863;DHT22;15994;51.796;13.006;2022-09-21T17:54:13;12.10;99.90
28863;DHT22;15994;51.796;13.006;2022-09-21T17:56:57;12.00;99.90
28863;DHT22;15994;51.796;13.006;2022-09-21T17:59:30;11.70;99.90
28863;DHT22;15994;51.796;13.006;2022-09-21T18:01:58;11.70;99.90
28863;DHT22;15994;51.796;13.006;2022-09-21T18:04:26;11.60;99.90
28863;DHT22;15994;51.796;13.006;2022-09-21T18:06:55;11.70;99.90
28863;DHT22;15994;51.796;13.006;2022-09-21T18:09:21;11.70;99.90
28863;DHT22;15994;51.796;13.006;2022-09-21T18:14:48;11.50;99.90
28863;DHT22;15994;51.796;13.006;2022-09-21T18:23:03;11.30;99.90
28863;DHT22;15994;51.796;13.006;2022-09-21T18:25:34;11.40;99.90
28863;DHT22;15994;51.796;13.006;2022-09-21T18:28:16;11.30;99.90
28863;DHT22;15994;51.796;13.006;2022-09-21T18:30:54;11.20;99.90
28863;DHT22;15994;51.796;13.006;2022-09-21T18:33:33;11.20;99.90
28863;DHT22;15994;51.796;13.006;2022-09-21T18:36:10;11.10;99.90
28863;DHT22;15994;51.796;13.006;2022-09-21T18:38:47;11.10;99.90
28863;DHT22;15994;51.796;13.006;2022-09-21T18:41:27;11.10;99.90
28863;DHT22;15994;51.796;13.006;2022-09-21T18:54:20;10.70;99.90
28863;DHT22;15994;51.796;13.006;2022-09-21T18:56:47;10.80;99.90